This is the latest recevied weather packets stored in our database for station/object K1BES. If no packets are shown the sender has not sent any weather packets the latest 1 day(s).
| Time | Temp. | Humidity | Pressure | Rain* | Wind** | Luminosity | Snow |
|---|---|---|---|---|---|---|---|
| 1778010479 | 28.33° C | 68% | 1016.6 hPa | 0 mm | 0.45 m/s, 46° | 711 W/m² | - |
| 1778010176 | 28.89° C | 68% | 1016.4 hPa | 0 mm | 0.45 m/s, 19° | 776 W/m² | - |
| 1778009876 | 28.89° C | 67% | 1016.3 hPa | 0 mm | 0.45 m/s, 20° | 792 W/m² | - |
| 1778009575 | 28.89° C | 68% | 1016.3 hPa | 0 mm | 0.89 m/s, 344° | 792 W/m² | - |
| 1778009273 | 28.33° C | 69% | 1016.5 hPa | 0 mm | 0.45 m/s, 342° | 786 W/m² | - |
| 1778008970 | 28.33° C | 68% | 1016.5 hPa | 0 mm | 0.45 m/s, 22° | 794 W/m² | - |
| 1778008668 | 28.89° C | 67% | 1016.6 hPa | 0 mm | 0.45 m/s, 6° | 832 W/m² | - |
| 1778008366 | 28.89° C | 68% | 1016.5 hPa | 0 mm | 0.45 m/s, 18° | 784 W/m² | - |
| 1778008062 | 28.89° C | 68% | 1016.4 hPa | 0 mm | 0.45 m/s, 24° | 821 W/m² | - |
| 1778007757 | 28.89° C | 66% | 1016.5 hPa | 0 mm | 0.89 m/s, 20° | 831 W/m² | - |
| 1778007454 | 28.89° C | 65% | 1016.6 hPa | 0 mm | 1.34 m/s, 337° | 838 W/m² | - |
| 1778007150 | 28.89° C | 67% | 1016.6 hPa | 0 mm | 0.45 m/s, 88° | 891 W/m² | - |
| 1778006846 | 28.89° C | 66% | 1016.7 hPa | 0 mm | 0.89 m/s, 295° | 880 W/m² | - |
| 1778006544 | 28.33° C | 68% | 1016.7 hPa | 0 mm | 0 m/s | 905 W/m² | - |
| 1778006240 | 28.89° C | 66% | 1016.5 hPa | 0 mm | 1.34 m/s, 337° | 915 W/m² | - |
| 1778005950 | 29.44° C | 63% | 1016.7 hPa | 0 mm | 0.45 m/s, 12° | 890 W/m² | - |
| 1778005634 | 28.89° C | 66% | 1016.9 hPa | 0 mm | 0.45 m/s, 345° | 1014 W/m² | - |
| 1778005331 | 28.89° C | 66% | 1017 hPa | 0 mm | 1.34 m/s, 291° | 1030 W/m² | - |
| 1778005028 | 28.89° C | 65% | 1017 hPa | 0 mm | 0.89 m/s, 32° | 1034 W/m² | - |
| 1778004726 | 28.89° C | 65% | 1016.9 hPa | 0 mm | 0.89 m/s, 349° | 1047 W/m² | - |
| 1778004421 | 29.44° C | 63% | 1017.1 hPa | 0 mm | 0.45 m/s, 38° | 883 W/m² | - |
| 1778004119 | 28.89° C | 64% | 1017.1 hPa | 0 mm | 0.45 m/s, 15° | 992 W/m² | - |
| 1778003814 | 29.44° C | 64% | 1017 hPa | 0 mm | 0.45 m/s, 8° | 1001 W/m² | - |
| 1778003511 | 29.44° C | 63% | 1017.2 hPa | 0 mm | 0.45 m/s, 35° | 1076 W/m² | - |
| 1778003208 | 29.44° C | 64% | 1017.2 hPa | 0 mm | 0.89 m/s, 28° | 1046 W/m² | - |
* Rain latest hour (hover to see other rain measurements)
** Current wind speed in m/s (hover to see current wind gust speed)